sensor_id;sensor_type;location;lat;lon;timestamp;pressure;altitude;pressure_sealevel;temperature;humidity
13314;BME280;6725;48.112;11.604;2022-12-10T00:00:22;93016.72;;;1.55;100.00
13314;BME280;6725;48.112;11.604;2022-12-10T00:02:47;93022.09;;;1.55;100.00
13314;BME280;6725;48.112;11.604;2022-12-10T00:05:13;93029.03;;;1.56;100.00
13314;BME280;6725;48.112;11.604;2022-12-10T00:07:38;93032.78;;;1.62;100.00
13314;BME280;6725;48.112;11.604;2022-12-10T00:10:04;93035.78;;;1.67;100.00
13314;BME280;6725;48.112;11.604;2022-12-10T00:12:29;93031.91;;;1.68;100.00
13314;BME280;6725;48.112;11.604;2022-12-10T00:14:54;93021.88;;;1.72;100.00
13314;BME280;6725;48.112;11.604;2022-12-10T00:17:20;93021.88;;;1.72;100.00
13314;BME280;6725;48.112;11.604;2022-12-10T00:19:45;93021.88;;;1.72;100.00
13314;BME280;6725;48.112;11.604;2022-12-10T00:22:10;93020.31;;;1.75;100.00
13314;BME280;6725;48.112;11.604;2022-12-10T00:24:36;93031.81;;;1.75;100.00
13314;BME280;6725;48.112;11.604;2022-12-10T00:27:01;93029.13;;;1.75;100.00
13314;BME280;6725;48.112;11.604;2022-12-10T00:29:26;93028.38;;;1.75;100.00
13314;BME280;6725;48.112;11.604;2022-12-10T00:31:52;93035.34;;;1.72;100.00
13314;BME280;6725;48.112;11.604;2022-12-10T00:34:17;93033.78;;;1.71;100.00
13314;BME280;6725;48.112;11.604;2022-12-10T00:36:45;93033.44;;;1.69;100.00
13314;BME280;6725;48.112;11.604;2022-12-10T00:39:17;93045.72;;;1.70;100.00
13314;BME280;6725;48.112;11.604;2022-12-10T00:41:42;93040.72;;;1.72;100.00
13314;BME280;6725;48.112;11.604;2022-12-10T00:44:08;93043.75;;;1.74;100.00
13314;BME280;6725;48.112;11.604;2022-12-10T00:46:33;93049.91;;;1.75;100.00
13314;BME280;6725;48.112;11.604;2022-12-10T00:48:59;93049.50;;;1.76;100.00
13314;BME280;6725;48.112;11.604;2022-12-10T00:51:25;93054.03;;;1.79;100.00
13314;BME280;6725;48.112;11.604;2022-12-10T00:53:53;93057.91;;;1.78;100.00
13314;BME280;6725;48.112;11.604;2022-12-10T00:56:21;93072.16;;;1.75;100.00
13314;BME280;6725;48.112;11.604;2022-12-10T00:58:48;93079.09;;;1.76;100.00
13314;BME280;6725;48.112;11.604;2022-12-10T01:04:01;93101.81;;;1.72;100.00
13314;BME280;6725;48.112;11.604;2022-12-10T01:06:31;93110.28;;;1.70;100.00
13314;BME280;6725;48.112;11.604;2022-12-10T01:09:00;93107.97;;;1.69;100.00
13314;BME280;6725;48.112;11.604;2022-12-10T01:11:29;93108.34;;;1.71;100.00
13314;BME280;6725;48.112;11.604;2022-12-10T01:13:56;93096.78;;;1.74;100.00
13314;BME280;6725;48.112;11.604;2022-12-10T01:16:22;93103.28;;;1.76;100.00
13314;BME280;6725;48.112;11.604;2022-12-10T01:18:48;93104.00;;;1.80;100.00
13314;BME280;6725;48.112;11.604;2022-12-10T01:21:18;93097.91;;;1.76;100.00
13314;BME280;6725;48.112;11.604;2022-12-10T01:23:45;93095.63;;;1.75;100.00
13314;BME280;6725;48.112;11.604;2022-12-10T01:26:20;93090.25;;;1.75;100.00
13314;BME280;6725;48.112;11.604;2022-12-10T01:28:46;93085.59;;;1.75;100.00
13314;BME280;6725;48.112;11.604;2022-12-10T01:31:14;93085.69;;;1.68;100.00
13314;BME280;6725;48.112;11.604;2022-12-10T01:33:40;93090.34;;;1.64;100.00
13314;BME280;6725;48.112;11.604;2022-12-10T01:36:09;93096.19;;;1.59;100.00
13314;BME280;6725;48.112;11.604;2022-12-10T01:38:36;93088.84;;;1.63;100.00
13314;BME280;6725;48.112;11.604;2022-12-10T01:41:02;93087.28;;;1.66;100.00
13314;BME280;6725;48.112;11.604;2022-12-10T01:43:46;93084.34;;;1.53;100.00
13314;BME280;6725;48.112;11.604;2022-12-10T01:46:13;93095.09;;;1.53;100.00
13314;BME280;6725;48.112;11.604;2022-12-10T01:48:38;93095.06;;;1.57;100.00
13314;BME280;6725;48.112;11.604;2022-12-10T01:51:04;93092.69;;;1.62;100.00
13314;BME280;6725;48.112;11.604;2022-12-10T01:53:29;93092.69;;;1.62;100.00
13314;BME280;6725;48.112;11.604;2022-12-10T01:55:55;93090.41;;;1.61;100.00
13314;BME280;6725;48.112;11.604;2022-12-10T01:58:20;93087.41;;;1.55;100.00
13314;BME280;6725;48.112;11.604;2022-12-10T02:06:17;93089.00;;;1.49;100.00
13314;BME280;6725;48.112;11.604;2022-12-10T02:11:49;93076.69;;;1.52;100.00
13314;BME280;6725;48.112;11.604;2022-12-10T02:14:20;93061.31;;;1.52;100.00
13314;BME280;6725;48.112;11.604;2022-12-10T02:16:57;93055.22;;;1.48;100.00
13314;BME280;6725;48.112;11.604;2022-12-10T02:19:58;93050.56;;;1.52;100.00
13314;BME280;6725;48.112;11.604;2022-12-10T02:22:26;93044.78;;;1.54;100.00
13314;BME280;6725;48.112;11.604;2022-12-10T02:24:54;93044.41;;;1.52;100.00
13314;BME280;6725;48.112;11.604;2022-12-10T02:27:29;93034.91;;;1.47;100.00
13314;BME280;6725;48.112;11.604;2022-12-10T02:29:58;93024.84;;;1.51;100.00
13314;BME280;6725;48.112;11.604;2022-12-10T02:32:30;93023.78;;;1.45;100.00
13314;BME280;6725;48.112;11.604;2022-12-10T02:34:58;93013.81;;;1.42;100.00
13314;BME280;6725;48.112;11.604;2022-12-10T02:37:35;93005.34;;;1.44;100.00
13314;BME280;6725;48.112;11.604;2022-12-10T02:40:07;93003.13;;;1.39;100.00
13314;BME280;6725;48.112;11.604;2022-12-10T02:42:38;92998.56;;;1.36;100.00
13314;BME280;6725;48.112;11.604;2022-12-10T02:45:04;92996.31;;;1.31;100.00
13314;BME280;6725;48.112;11.604;2022-12-10T02:47:31;92993.34;;;1.22;100.00
13314;BME280;6725;48.112;11.604;2022-12-10T02:49:58;92987.19;;;1.25;100.00
13314;BME280;6725;48.112;11.604;2022-12-10T02:52:24;92983.38;;;1.22;100.00
13314;BME280;6725;48.112;11.604;2022-12-10T02:54:50;93029.47;;;1.17;100.00
13314;BME280;6725;48.112;11.604;2022-12-10T03:05:32;93002.66;;;1.14;100.00
13314;BME280;6725;48.112;11.604;2022-12-10T03:13:08;92982.66;;;1.18;100.00
13314;BME280;6725;48.112;11.604;2022-12-10T03:15:37;92984.94;;;1.20;100.00
13314;BME280;6725;48.112;11.604;2022-12-10T03:18:06;92975.84;;;1.10;100.00
13314;BME280;6725;48.112;11.604;2022-12-10T03:20:36;92969.97;;;1.19;100.00
13314;BME280;6725;48.112;11.604;2022-12-10T03:23:03;92971.53;;;1.16;100.00
13314;BME280;6725;48.112;11.604;2022-12-10T03:25:31;92967.34;;;1.15;100.00
13314;BME280;6725;48.112;11.604;2022-12-10T03:27:59;92962.69;;;1.19;100.00
13314;BME280;6725;48.112;11.604;2022-12-10T03:30:26;92970.03;;;1.15;100.00
13314;BME280;6725;48.112;11.604;2022-12-10T03:32:52;92956.53;;;1.19;100.00
13314;BME280;6725;48.112;11.604;2022-12-10T03:35:20;92955.00;;;1.21;100.00
13314;BME280;6725;48.112;11.604;2022-12-10T03:37:48;92959.53;;;1.24;100.00
13314;BME280;6725;48.112;11.604;2022-12-10T03:40:16;92961.16;;;1.18;100.00
13314;BME280;6725;48.112;11.604;2022-12-10T03:42:43;92961.59;;;1.13;100.00
13314;BME280;6725;48.112;11.604;2022-12-10T03:45:09;92952.69;;;1.20;100.00
13314;BME280;6725;48.112;11.604;2022-12-10T03:47:34;92948.47;;;1.19;100.00
13314;BME280;6725;48.112;11.604;2022-12-10T03:49:59;92958.81;;;1.20;100.00
13314;BME280;6725;48.112;11.604;2022-12-10T03:52:25;92960.09;;;1.12;100.00
13314;BME280;6725;48.112;11.604;2022-12-10T03:54:50;92954.72;;;1.12;100.00
13314;BME280;6725;48.112;11.604;2022-12-10T03:57:16;92950.44;;;1.15;100.00
13314;BME280;6725;48.112;11.604;2022-12-10T03:59:41;92951.25;;;1.12;100.00
13314;BME280;6725;48.112;11.604;2022-12-10T04:02:06;92945.94;;;1.08;100.00
13314;BME280;6725;48.112;11.604;2022-12-10T04:04:32;92943.72;;;1.03;100.00
13314;BME280;6725;48.112;11.604;2022-12-10T04:06:57;92937.50;;;1.06;100.00
13314;BME280;6725;48.112;11.604;2022-12-10T04:09:23;92930.63;;;1.05;100.00
13314;BME280;6725;48.112;11.604;2022-12-10T04:11:48;92932.56;;;1.05;100.00
13314;BME280;6725;48.112;11.604;2022-12-10T04:14:17;92929.81;;;1.08;100.00
13314;BME280;6725;48.112;11.604;2022-12-10T04:17:01;92942.06;;;1.09;100.00
13314;BME280;6725;48.112;11.604;2022-12-10T04:19:26;92943.63;;;1.10;100.00
13314;BME280;6725;48.112;11.604;2022-12-10T04:21:52;92920.19;;;1.11;100.00
13314;BME280;6725;48.112;11.604;2022-12-10T04:24:36;92918.28;;;1.11;100.00
13314;BME280;6725;48.112;11.604;2022-12-10T04:27:23;92921.66;;;1.15;100.00
13314;BME280;6725;48.112;11.604;2022-12-10T04:29:49;92921.28;;;1.13;100.00
13314;BME280;6725;48.112;11.604;2022-12-10T04:32:16;92917.81;;;1.16;100.00
13314;BME280;6725;48.112;11.604;2022-12-10T04:34:41;92909.03;;;1.12;100.00
13314;BME280;6725;48.112;11.604;2022-12-10T04:37:06;92911.00;;;1.08;100.00
13314;BME280;6725;48.112;11.604;2022-12-10T04:39:32;92907.53;;;1.11;100.00
13314;BME280;6725;48.112;11.604;2022-12-10T04:41:59;92919.13;;;1.05;100.00
13314;BME280;6725;48.112;11.604;2022-12-10T04:44:25;92923.34;;;1.02;100.00
13314;BME280;6725;48.112;11.604;2022-12-10T04:46:51;92924.03;;;1.10;100.00
13314;BME280;6725;48.112;11.604;2022-12-10T04:49:16;92922.88;;;1.11;100.00
13314;BME280;6725;48.112;11.604;2022-12-10T04:51:42;92930.59;;;1.09;100.00
13314;BME280;6725;48.112;11.604;2022-12-10T04:54:08;92918.34;;;1.04;100.00
13314;BME280;6725;48.112;11.604;2022-12-10T04:56:33;92917.41;;;1.18;100.00
13314;BME280;6725;48.112;11.604;2022-12-10T04:58:59;92918.97;;;1.15;100.00
13314;BME280;6725;48.112;11.604;2022-12-10T05:01:25;92912.91;;;1.11;100.00
13314;BME280;6725;48.112;11.604;2022-12-10T05:03:51;92914.50;;;1.05;100.00
13314;BME280;6725;48.112;11.604;2022-12-10T05:06:18;92914.06;;;1.10;100.00
13314;BME280;6725;48.112;11.604;2022-12-10T05:08:44;92913.63;;;1.12;100.00
13314;BME280;6725;48.112;11.604;2022-12-10T05:11:17;92927.59;;;1.03;100.00
13314;BME280;6725;48.112;11.604;2022-12-10T05:13:44;92926.41;;;1.04;100.00
13314;BME280;6725;48.112;11.604;2022-12-10T05:16:11;92925.16;;;1.12;100.00
13314;BME280;6725;48.112;11.604;2022-12-10T05:18:37;92931.00;;;1.07;100.00
13314;BME280;6725;48.112;11.604;2022-12-10T05:21:05;92924.53;;;1.01;100.00
13314;BME280;6725;48.112;11.604;2022-12-10T05:23:32;92930.38;;;0.96;100.00
13314;BME280;6725;48.112;11.604;2022-12-10T05:26:02;92930.06;;;0.87;100.00
13314;BME280;6725;48.112;11.604;2022-12-10T05:28:29;92931.50;;;0.95;100.00
13314;BME280;6725;48.112;11.604;2022-12-10T05:30:56;92930.72;;;0.98;100.00
13314;BME280;6725;48.112;11.604;2022-12-10T05:33:22;92938.06;;;0.94;100.00
13314;BME280;6725;48.112;11.604;2022-12-10T05:36:01;92936.88;;;0.95;100.00
13314;BME280;6725;48.112;11.604;2022-12-10T05:38:30;92942.38;;;0.88;100.00
13314;BME280;6725;48.112;11.604;2022-12-10T05:41:00;92949.59;;;0.91;100.00
13314;BME280;6725;48.112;11.604;2022-12-10T05:43:26;92961.91;;;0.89;100.00
13314;BME280;6725;48.112;11.604;2022-12-10T05:45:52;92962.22;;;0.94;100.00
13314;BME280;6725;48.112;11.604;2022-12-10T05:48:17;92977.69;;;0.87;100.00
13314;BME280;6725;48.112;11.604;2022-12-10T05:50:43;92972.22;;;0.94;100.00
13314;BME280;6725;48.112;11.604;2022-12-10T05:53:08;92974.53;;;0.92;100.00
13314;BME280;6725;48.112;11.604;2022-12-10T05:55:34;92981.78;;;0.95;100.00
13314;BME280;6725;48.112;11.604;2022-12-10T05:58:00;92991.50;;;0.85;100.00
13314;BME280;6725;48.112;11.604;2022-12-10T06:00:27;93003.72;;;0.90;100.00
13314;BME280;6725;48.112;11.604;2022-12-10T06:02:52;93006.91;;;0.81;100.00
13314;BME280;6725;48.112;11.604;2022-12-10T06:05:18;93010.69;;;0.84;100.00
13314;BME280;6725;48.112;11.604;2022-12-10T06:07:44;93012.22;;;0.85;100.00
13314;BME280;6725;48.112;11.604;2022-12-10T06:10:10;93021.00;;;0.89;100.00
13314;BME280;6725;48.112;11.604;2022-12-10T06:12:35;93032.50;;;0.89;100.00
13314;BME280;6725;48.112;11.604;2022-12-10T06:15:01;93025.28;;;0.83;100.00
13314;BME280;6725;48.112;11.604;2022-12-10T06:17:26;93026.41;;;0.85;100.00
13314;BME280;6725;48.112;11.604;2022-12-10T06:19:52;93036.78;;;0.83;100.00
13314;BME280;6725;48.112;11.604;2022-12-10T06:22:17;93019.09;;;0.86;100.00
13314;BME280;6725;48.112;11.604;2022-12-10T06:24:42;93019.06;;;0.89;100.00
13314;BME280;6725;48.112;11.604;2022-12-10T06:27:08;93027.94;;;0.86;100.00
13314;BME280;6725;48.112;11.604;2022-12-10T06:29:33;93044.50;;;0.81;100.00
13314;BME280;6725;48.112;11.604;2022-12-10T06:31:59;93034.47;;;0.85;100.00
13314;BME280;6725;48.112;11.604;2022-12-10T06:34:24;93027.53;;;0.88;100.00
13314;BME280;6725;48.112;11.604;2022-12-10T06:36:49;93031.00;;;0.85;100.00
13314;BME280;6725;48.112;11.604;2022-12-10T06:39:15;93022.88;;;0.92;100.00
13314;BME280;6725;48.112;11.604;2022-12-10T06:41:40;93029.84;;;0.86;100.00
13314;BME280;6725;48.112;11.604;2022-12-10T06:44:09;93028.38;;;0.81;100.00
13314;BME280;6725;48.112;11.604;2022-12-10T06:46:35;93031.38;;;0.87;100.00
13314;BME280;6725;48.112;11.604;2022-12-10T06:49:01;93033.94;;;0.97;100.00
13314;BME280;6725;48.112;11.604;2022-12-10T06:51:26;93022.13;;;0.91;100.00
13314;BME280;6725;48.112;11.604;2022-12-10T06:53:52;93039.06;;;0.88;100.00
13314;BME280;6725;48.112;11.604;2022-12-10T06:56:18;93038.34;;;0.81;100.00
13314;BME280;6725;48.112;11.604;2022-12-10T06:58:45;93042.59;;;0.78;100.00
13314;BME280;6725;48.112;11.604;2022-12-10T07:03:36;93039.84;;;0.85;100.00
13314;BME280;6725;48.112;11.604;2022-12-10T07:06:03;93034.09;;;0.83;100.00
13314;BME280;6725;48.112;11.604;2022-12-10T07:08:29;93033.38;;;0.79;100.00
13314;BME280;6725;48.112;11.604;2022-12-10T07:10:55;93034.81;;;0.87;100.00
13314;BME280;6725;48.112;11.604;2022-12-10T07:13:20;93043.75;;;0.77;100.00
13314;BME280;6725;48.112;11.604;2022-12-10T07:15:50;93041.44;;;0.79;100.00
13314;BME280;6725;48.112;11.604;2022-12-10T07:18:17;93049.03;;;0.84;100.00
13314;BME280;6725;48.112;11.604;2022-12-10T07:21:13;93046.72;;;0.86;100.00
13314;BME280;6725;48.112;11.604;2022-12-10T07:23:38;93051.25;;;0.93;100.00
13314;BME280;6725;48.112;11.604;2022-12-10T07:26:04;93051.59;;;0.98;100.00
13314;BME280;6725;48.112;11.604;2022-12-10T07:28:29;93061.94;;;1.00;100.00
13314;BME280;6725;48.112;11.604;2022-12-10T07:31:01;93066.19;;;0.97;100.00
13314;BME280;6725;48.112;11.604;2022-12-10T07:33:26;93073.53;;;0.93;100.00
13314;BME280;6725;48.112;11.604;2022-12-10T07:35:52;93078.88;;;0.93;100.00
13314;BME280;6725;48.112;11.604;2022-12-10T07:38:17;93090.81;;;0.89;100.00
13314;BME280;6725;48.112;11.604;2022-12-10T07:40:42;93090.34;;;0.97;100.00
13314;BME280;6725;48.112;11.604;2022-12-10T07:43:08;93091.13;;;0.98;100.00
13314;BME280;6725;48.112;11.604;2022-12-10T07:45:33;93114.91;;;0.99;100.00
13314;BME280;6725;48.112;11.604;2022-12-10T07:47:58;93107.50;;;1.10;100.00
13314;BME280;6725;48.112;11.604;2022-12-10T07:50:24;93111.66;;;1.15;100.00
13314;BME280;6725;48.112;11.604;2022-12-10T07:52:49;93120.13;;;1.13;100.00
13314;BME280;6725;48.112;11.604;2022-12-10T07:55:14;93125.56;;;1.06;100.00
13314;BME280;6725;48.112;11.604;2022-12-10T07:57:40;93124.84;;;1.02;100.00
13314;BME280;6725;48.112;11.604;2022-12-10T08:00:06;93131.69;;;1.10;100.00
13314;BME280;6725;48.112;11.604;2022-12-10T08:02:31;93145.88;;;1.11;100.00
13314;BME280;6725;48.112;11.604;2022-12-10T08:04:57;93154.66;;;1.15;100.00
13314;BME280;6725;48.112;11.604;2022-12-10T08:07:22;93158.41;;;1.24;100.00
13314;BME280;6725;48.112;11.604;2022-12-10T08:09:47;93161.78;;;1.32;100.00
13314;BME280;6725;48.112;11.604;2022-12-10T08:12:13;93178.75;;;1.25;100.00
13314;BME280;6725;48.112;11.604;2022-12-10T08:14:38;93175.00;;;1.16;100.00
13314;BME280;6725;48.112;11.604;2022-12-10T08:17:03;93186.13;;;1.18;100.00
13314;BME280;6725;48.112;11.604;2022-12-10T08:19:29;93197.66;;;1.15;100.00
13314;BME280;6725;48.112;11.604;2022-12-10T08:21:54;93219.97;;;1.08;100.00
13314;BME280;6725;48.112;11.604;2022-12-10T08:24:20;93231.22;;;0.96;100.00
13314;BME280;6725;48.112;11.604;2022-12-10T08:26:45;93227.53;;;1.20;100.00
13314;BME280;6725;48.112;11.604;2022-12-10T08:29:10;93243.72;;;1.17;100.00
13314;BME280;6725;48.112;11.604;2022-12-10T08:31:36;93241.97;;;1.40;100.00
13314;BME280;6725;48.112;11.604;2022-12-10T08:34:01;93266.69;;;1.25;100.00
13314;BME280;6725;48.112;11.604;2022-12-10T08:36:27;93271.09;;;1.45;100.00
13314;BME280;6725;48.112;11.604;2022-12-10T08:38:52;93306.09;;;1.38;100.00
13314;BME280;6725;48.112;11.604;2022-12-10T08:41:20;93327.16;;;1.47;100.00
13314;BME280;6725;48.112;11.604;2022-12-10T08:43:47;93339.34;;;1.62;100.00
13314;BME280;6725;48.112;11.604;2022-12-10T08:46:13;93365.16;;;1.52;100.00
13314;BME280;6725;48.112;11.604;2022-12-10T08:48:39;93382.41;;;1.55;100.00
13314;BME280;6725;48.112;11.604;2022-12-10T08:51:05;93392.44;;;1.51;100.00
13314;BME280;6725;48.112;11.604;2022-12-10T08:53:32;93419.34;;;1.47;100.00
13314;BME280;6725;48.112;11.604;2022-12-10T08:55:58;93429.31;;;1.50;100.00
13314;BME280;6725;48.112;11.604;2022-12-10T08:58:23;93449.31;;;1.46;100.00
13314;BME280;6725;48.112;11.604;2022-12-10T09:00:49;93453.88;;;1.52;100.00
13314;BME280;6725;48.112;11.604;2022-12-10T09:03:15;93463.50;;;1.46;100.00
13314;BME280;6725;48.112;11.604;2022-12-10T09:05:41;93466.13;;;1.60;100.00
13314;BME280;6725;48.112;11.604;2022-12-10T09:08:06;93480.41;;;1.50;100.00
13314;BME280;6725;48.112;11.604;2022-12-10T09:10:31;93484.94;;;1.60;100.00
13314;BME280;6725;48.112;11.604;2022-12-10T09:12:57;93499.84;;;1.75;100.00
13314;BME280;6725;48.112;11.604;2022-12-10T09:15:22;93518.78;;;1.61;100.00
13314;BME280;6725;48.112;11.604;2022-12-10T09:17:48;93545.38;;;1.31;100.00
13314;BME280;6725;48.112;11.604;2022-12-10T09:20:13;93551.13;;;1.40;100.00
13314;BME280;6725;48.112;11.604;2022-12-10T09:22:39;93561.19;;;1.22;100.00
13314;BME280;6725;48.112;11.604;2022-12-10T09:25:06;93560.78;;;1.20;100.00
13314;BME280;6725;48.112;11.604;2022-12-10T09:27:32;93560.75;;;1.27;100.00
13314;BME280;6725;48.112;11.604;2022-12-10T09:29:58;93575.38;;;1.19;100.00
13314;BME280;6725;48.112;11.604;2022-12-10T09:32:23;93564.63;;;1.26;100.00
13314;BME280;6725;48.112;11.604;2022-12-10T09:34:52;93555.34;;;1.41;100.00
13314;BME280;6725;48.112;11.604;2022-12-10T09:37:18;93562.63;;;1.44;100.00
13314;BME280;6725;48.112;11.604;2022-12-10T09:39:43;93558.38;;;1.47;100.00
13314;BME280;6725;48.112;11.604;2022-12-10T09:42:21;93569.16;;;1.40;100.00
13314;BME280;6725;48.112;11.604;2022-12-10T09:47:33;93578.00;;;1.40;100.00
13314;BME280;6725;48.112;11.604;2022-12-10T09:50:30;93567.63;;;1.35;100.00
13314;BME280;6725;48.112;11.604;2022-12-10T09:53:00;93571.50;;;1.27;100.00
13314;BME280;6725;48.112;11.604;2022-12-10T09:55:34;93572.25;;;1.38;100.00
13314;BME280;6725;48.112;11.604;2022-12-10T09:58:03;93568.03;;;1.37;100.00
13314;BME280;6725;48.112;11.604;2022-12-10T10:02:56;93562.22;;;1.49;100.00
13314;BME280;6725;48.112;11.604;2022-12-10T10:08:03;93566.88;;;1.42;100.00
13314;BME280;6725;48.112;11.604;2022-12-10T10:10:36;93574.59;;;1.29;100.00
13314;BME280;6725;48.112;11.604;2022-12-10T10:13:29;93563.84;;;1.29;100.00
13314;BME280;6725;48.112;11.604;2022-12-10T10:15:55;93573.81;;;1.32;100.00
13314;BME280;6725;48.112;11.604;2022-12-10T10:18:43;93561.88;;;1.40;100.00
13314;BME280;6725;48.112;11.604;2022-12-10T10:21:21;93553.78;;;1.47;100.00
13314;BME280;6725;48.112;11.604;2022-12-10T10:23:47;93548.34;;;1.61;100.00
13314;BME280;6725;48.112;11.604;2022-12-10T10:26:13;93556.03;;;1.59;100.00
13314;BME280;6725;48.112;11.604;2022-12-10T10:28:39;93549.53;;;1.57;100.00
13314;BME280;6725;48.112;11.604;2022-12-10T10:31:28;93552.56;;;1.62;100.00
13314;BME280;6725;48.112;11.604;2022-12-10T10:33:57;93548.38;;;1.51;100.00
13314;BME280;6725;48.112;11.604;2022-12-10T10:36:41;93552.25;;;1.50;100.00
13314;BME280;6725;48.112;11.604;2022-12-10T10:39:25;93546.78;;;1.60;100.00
13314;BME280;6725;48.112;11.604;2022-12-10T10:41:54;93541.44;;;1.57;100.00
13314;BME280;6725;48.112;11.604;2022-12-10T10:44:22;93524.16;;;1.58;100.00
13314;BME280;6725;48.112;11.604;2022-12-10T10:46:51;93523.81;;;1.49;100.00
13314;BME280;6725;48.112;11.604;2022-12-10T10:51:49;93517.22;;;1.60;100.00
13314;BME280;6725;48.112;11.604;2022-12-10T10:57:03;93507.59;;;1.63;100.00
13314;BME280;6725;48.112;11.604;2022-12-10T10:59:34;93502.22;;;1.66;100.00
13314;BME280;6725;48.112;11.604;2022-12-10T11:04:49;93508.72;;;1.72;100.00
13314;BME280;6725;48.112;11.604;2022-12-10T11:09:48;93487.56;;;1.74;100.00
13314;BME280;6725;48.112;11.604;2022-12-10T11:12:27;93483.66;;;1.82;100.00
13314;BME280;6725;48.112;11.604;2022-12-10T11:14:53;93482.00;;;2.02;100.00
13314;BME280;6725;48.112;11.604;2022-12-10T11:17:21;93490.84;;;1.99;100.00
13314;BME280;6725;48.112;11.604;2022-12-10T11:22:52;93488.00;;;2.20;100.00
13314;BME280;6725;48.112;11.604;2022-12-10T11:25:27;93493.53;;;1.99;100.00
13314;BME280;6725;48.112;11.604;2022-12-10T11:28:40;93509.63;;;2.06;100.00
13314;BME280;6725;48.112;11.604;2022-12-10T11:31:38;93498.78;;;2.17;100.00
13314;BME280;6725;48.112;11.604;2022-12-10T11:41:27;93515.75;;;2.10;100.00
13314;BME280;6725;48.112;11.604;2022-12-10T11:49:42;93510.91;;;1.88;100.00
13314;BME280;6725;48.112;11.604;2022-12-10T11:55:24;93504.13;;;1.66;100.00
13314;BME280;6725;48.112;11.604;2022-12-10T12:00:26;93477.41;;;1.99;100.00
13314;BME280;6725;48.112;11.604;2022-12-10T12:03:15;93483.69;;;1.75;100.00
13314;BME280;6725;48.112;11.604;2022-12-10T12:12:02;93479.44;;;1.81;100.00
13314;BME280;6725;48.112;11.604;2022-12-10T12:14:40;93474.38;;;1.90;100.00
13314;BME280;6725;48.112;11.604;2022-12-10T12:17:34;93471.31;;;1.88;100.00
13314;BME280;6725;48.112;11.604;2022-12-10T12:20:13;93469.72;;;1.98;100.00
13314;BME280;6725;48.112;11.604;2022-12-10T12:22:44;93458.59;;;1.92;100.00
13314;BME280;6725;48.112;11.604;2022-12-10T12:25:16;93467.16;;;1.80;100.00
13314;BME280;6725;48.112;11.604;2022-12-10T12:27:50;93465.94;;;1.88;100.00
13314;BME280;6725;48.112;11.604;2022-12-10T12:30:19;93464.38;;;1.94;100.00
13314;BME280;6725;48.112;11.604;2022-12-10T12:35:21;93470.59;;;1.81;100.00
13314;BME280;6725;48.112;11.604;2022-12-10T12:38:00;93459.06;;;1.84;100.00
13314;BME280;6725;48.112;11.604;2022-12-10T12:40:40;93466.47;;;1.69;100.00
13314;BME280;6725;48.112;11.604;2022-12-10T12:43:12;93473.13;;;1.47;100.00
13314;BME280;6725;48.112;11.604;2022-12-10T12:45:45;93469.22;;;1.55;100.00
13314;BME280;6725;48.112;11.604;2022-12-10T12:48:34;93470.00;;;1.56;100.00
13314;BME280;6725;48.112;11.604;2022-12-10T12:51:27;93464.59;;;1.59;100.00
13314;BME280;6725;48.112;11.604;2022-12-10T12:53:54;93453.41;;;1.64;100.00
13314;BME280;6725;48.112;11.604;2022-12-10T13:04:14;93440.78;;;1.61;100.00
13314;BME280;6725;48.112;11.604;2022-12-10T13:06:40;93450.84;;;1.47;100.00
13314;BME280;6725;48.112;11.604;2022-12-10T13:11:40;93441.53;;;1.65;100.00
13314;BME280;6725;48.112;11.604;2022-12-10T13:22:00;93427.59;;;1.77;100.00
13314;BME280;6725;48.112;11.604;2022-12-10T13:27:18;93436.09;;;1.72;100.00
13314;BME280;6725;48.112;11.604;2022-12-10T13:42:38;93417.38;;;1.58;100.00
13314;BME280;6725;48.112;11.604;2022-12-10T13:45:27;93423.88;;;1.57;100.00
13314;BME280;6725;48.112;11.604;2022-12-10T13:53:28;93373.22;;;1.52;100.00
13314;BME280;6725;48.112;11.604;2022-12-10T14:06:41;93341.69;;;1.56;100.00
13314;BME280;6725;48.112;11.604;2022-12-10T14:09:18;93333.25;;;1.54;100.00
13314;BME280;6725;48.112;11.604;2022-12-10T14:12:07;93334.72;;;1.62;100.00
13314;BME280;6725;48.112;11.604;2022-12-10T14:14:42;93327.88;;;1.54;100.00
13314;BME280;6725;48.112;11.604;2022-12-10T14:17:19;93332.53;;;1.50;100.00
13314;BME280;6725;48.112;11.604;2022-12-10T14:19:47;93324.53;;;1.43;100.00
13314;BME280;6725;48.112;11.604;2022-12-10T14:22:29;93317.19;;;1.47;100.00
13314;BME280;6725;48.112;11.604;2022-12-10T14:25:02;93319.53;;;1.38;100.00
13314;BME280;6725;48.112;11.604;2022-12-10T14:27:29;93316.91;;;1.31;100.00
13314;BME280;6725;48.112;11.604;2022-12-10T14:30:05;93311.13;;;1.36;100.00
13314;BME280;6725;48.112;11.604;2022-12-10T14:32:34;93312.25;;;1.39;100.00
13314;BME280;6725;48.112;11.604;2022-12-10T14:35:01;93310.34;;;1.39;100.00
13314;BME280;6725;48.112;11.604;2022-12-10T14:37:31;93301.91;;;1.37;100.00
13314;BME280;6725;48.112;11.604;2022-12-10T14:39:59;93291.09;;;1.44;100.00
13314;BME280;6725;48.112;11.604;2022-12-10T14:42:25;93288.03;;;1.42;100.00
13314;BME280;6725;48.112;11.604;2022-12-10T14:44:56;93300.72;;;1.42;100.00
13314;BME280;6725;48.112;11.604;2022-12-10T14:47:22;93295.00;;;1.36;100.00
13314;BME280;6725;48.112;11.604;2022-12-10T14:49:49;93293.88;;;1.30;100.00
13314;BME280;6725;48.112;11.604;2022-12-10T14:52:19;93294.22;;;1.36;100.00
13314;BME280;6725;48.112;11.604;2022-12-10T14:54:45;93300.38;;;1.36;100.00
13314;BME280;6725;48.112;11.604;2022-12-10T14:57:17;93301.91;;;1.37;100.00
13314;BME280;6725;48.112;11.604;2022-12-10T15:02:22;93301.94;;;1.34;100.00
13314;BME280;6725;48.112;11.604;2022-12-10T15:04:50;93293.53;;;1.28;100.00
13314;BME280;6725;48.112;11.604;2022-12-10T15:07:25;93300.84;;;1.24;100.00
13314;BME280;6725;48.112;11.604;2022-12-10T15:09:53;93311.22;;;1.22;100.00
13314;BME280;6725;48.112;11.604;2022-12-10T15:12:30;93305.13;;;1.18;100.00
13314;BME280;6725;48.112;11.604;2022-12-10T15:15:02;93305.47;;;1.20;100.00
13314;BME280;6725;48.112;11.604;2022-12-10T15:17:58;93309.34;;;1.19;100.00